createdAt,value
2017-04-10T08:34:28.615Z,400
2017-04-10T08:35:39.273Z,440
2017-04-10T08:36:49.020Z,510
2017-04-10T08:37:59.045Z,620
2017-04-10T08:39:08.777Z,650
2017-04-10T08:40:18.982Z,695
2017-04-10T08:41:29.055Z,670
2017-04-10T08:42:39.226Z,530
2017-04-10T08:43:48.784Z,485
2017-04-10T08:44:58.650Z,525
2017-04-10T08:46:08.106Z,595
2017-04-10T08:47:17.917Z,640
2017-04-10T08:48:27.633Z,610
2017-04-10T08:49:37.684Z,550
2017-04-10T08:50:47.480Z,510
2017-04-10T08:51:57.197Z,460
2017-04-10T08:53:07.720Z,435
2017-04-10T08:54:16.811Z,400
2017-04-10T08:55:26.542Z,365
2017-04-10T08:56:36.514Z,365
2017-04-10T08:57:46.557Z,375
2017-04-10T08:58:56.139Z,365
2017-04-10T09:00:06.262Z,330
2017-04-10T09:01:15.814Z,290
2017-04-10T09:02:26.009Z,280
2017-04-10T09:03:35.857Z,275
2017-04-10T09:04:45.903Z,275
2017-04-10T09:05:55.948Z,280
2017-04-10T09:07:05.950Z,275
2017-04-10T09:08:15.672Z,265
2017-04-10T09:09:25.724Z,285
2017-04-10T09:10:35.457Z,345
2017-04-10T09:11:44.863Z,345
2017-04-10T09:12:53.983Z,325
2017-04-10T09:14:04.015Z,285
2017-04-10T09:15:14.369Z,265
2017-04-10T09:16:23.775Z,270
2017-04-10T09:17:33.817Z,295
2017-04-10T09:18:43.224Z,335
2017-04-10T09:19:52.621Z,365
2017-04-10T09:21:02.338Z,435
2017-04-10T09:22:12.406Z,590
2017-04-10T09:23:22.123Z,730
2017-04-10T09:24:32.162Z,830
2017-04-10T09:25:41.567Z,900
2017-04-10T09:26:50.988Z,1020
2017-04-10T09:28:00.704Z,1145
2017-04-10T09:29:10.452Z,1025
2017-04-10T09:30:20.495Z,1080
2017-04-10T09:31:30.544Z,1075
2017-04-10T09:32:39.632Z,1030
2017-04-10T09:33:49.031Z,1010
2017-04-10T09:34:58.756Z,1020
2017-04-10T09:36:08.488Z,985
2017-04-10T09:37:18.203Z,820
2017-04-10T09:38:27.920Z,520
2017-04-10T09:39:37.950Z,380
2017-04-10T09:40:47.668Z,300
2017-04-10T09:41:57.387Z,225
2017-04-10T09:43:07.414Z,185
2017-04-10T09:44:17.454Z,150
2017-04-10T09:45:27.500Z,140
2017-04-10T09:46:36.590Z,165
2017-04-10T09:47:46.311Z,180
2017-04-10T09:48:56.355Z,235
2017-04-10T09:50:06.954Z,290
2017-04-10T09:51:16.043Z,310
2017-04-10T09:52:26.079Z,385
2017-04-10T09:53:35.792Z,465
2017-04-10T09:54:45.824Z,490
2017-04-10T09:55:55.863Z,390
2017-04-10T09:57:05.902Z,325
2017-04-10T09:58:15.630Z,395
2017-04-10T09:59:25.361Z,480
2017-04-10T10:00:34.769Z,530
2017-04-10T10:01:44.177Z,570
2017-04-10T10:02:53.895Z,630
2017-04-10T10:04:03.609Z,720
2017-04-10T10:05:13.643Z,805
2017-04-10T10:06:23.045Z,855
2017-04-10T10:07:32.452Z,890
2017-04-10T10:08:42.174Z,875
2017-04-10T10:09:51.582Z,865
2017-04-10T10:11:01.859Z,880
2017-04-10T10:12:11.266Z,910
2017-04-10T10:13:21.615Z,945
2017-04-10T10:14:31.023Z,995
2017-04-10T10:15:40.748Z,1000
2017-04-10T10:16:50.159Z,960
2017-04-10T10:18:00.194Z,965
2017-04-10T10:19:09.922Z,975
2017-04-10T10:20:19.639Z,995
2017-04-10T10:21:29.688Z,1025
2017-04-10T10:22:39.730Z,1040
2017-04-10T10:23:49.783Z,1060
2017-04-10T10:24:59.187Z,1090
2017-04-10T10:26:09.225Z,1675
2017-04-10T10:27:18.953Z,1035
2017-04-10T10:28:28.988Z,970
2017-04-10T10:29:39.031Z,925
2017-04-10T10:30:48.753Z,895
2017-04-10T10:31:58.791Z,905
2017-04-10T10:33:08.712Z,950
2017-04-10T10:34:18.747Z,935
2017-04-10T10:35:28.471Z,940
2017-04-10T10:36:38.521Z,960
2017-04-10T10:37:48.560Z,925
2017-04-10T10:38:58.922Z,780
2017-04-10T10:40:08.658Z,785
2017-04-10T10:41:18.381Z,985
2017-04-10T10:42:27.790Z,2600
2017-04-10T10:43:37.827Z,1730
2017-04-10T10:44:47.554Z,1395
2017-04-10T10:45:57.596Z,2050
2017-04-10T10:47:07.039Z,1425
2017-04-10T10:48:16.762Z,1210
2017-04-10T10:49:26.176Z,1325
2017-04-10T10:50:35.896Z,1260
2017-04-10T10:51:46.256Z,1520
2017-04-10T10:52:56.295Z,1200
2017-04-10T10:54:06.033Z,855
2017-04-10T10:55:15.766Z,830
2017-04-10T10:56:25.816Z,800
2017-04-10T10:57:35.223Z,760
2017-04-10T10:58:44.945Z,970
2017-04-10T10:59:55.027Z,1540
2017-04-10T11:01:05.059Z,1085
2017-04-10T11:02:15.098Z,1160
2017-04-10T11:03:24.829Z,1405
2017-04-10T11:04:34.557Z,1185
2017-04-10T11:05:44.287Z,1140
2017-04-10T11:06:54.022Z,1375
2017-04-10T11:08:04.065Z,1465
2017-04-10T11:09:13.786Z,2605
2017-04-10T11:10:23.823Z,1490
2017-04-10T11:11:33.237Z,2190
2017-04-10T11:12:42.337Z,1745
2017-04-10T11:13:52.068Z,1640
2017-04-10T11:15:02.102Z,1720
2017-04-10T11:16:12.133Z,1020
2017-04-10T11:17:21.852Z,2175
2017-04-10T11:18:31.887Z,665
2017-04-10T11:19:41.625Z,575
2017-04-10T11:20:51.366Z,595
2017-04-10T11:22:01.396Z,570
2017-04-10T11:23:11.133Z,535
2017-04-10T11:24:21.186Z,475
2017-04-10T11:25:30.593Z,415
2017-04-10T11:26:40.461Z,380
2017-04-10T11:27:49.865Z,360
2017-04-10T11:28:59.576Z,385
2017-04-10T11:30:09.154Z,455
2017-04-10T11:31:18.580Z,535
2017-04-10T11:32:28.649Z,565
2017-04-10T11:33:38.053Z,565
2017-04-10T11:34:48.410Z,600
2017-04-10T11:35:58.443Z,660
2017-04-10T11:37:08.174Z,755
2017-04-10T11:38:17.584Z,820
2017-04-10T11:39:27.623Z,845
2017-04-10T11:40:37.025Z,1345
2017-04-10T11:41:47.061Z,725
2017-04-10T11:42:56.269Z,725
2017-04-10T11:44:06.346Z,745
2017-04-10T11:45:15.836Z,810
2017-04-10T11:46:25.871Z,825
2017-04-10T11:47:35.910Z,980
2017-04-10T11:48:45.637Z,1080
2017-04-10T11:49:55.737Z,1260
2017-04-10T11:51:06.134Z,875
2017-04-10T11:52:15.852Z,905
2017-04-10T11:53:25.252Z,1350
2017-04-10T11:54:34.981Z,1560
2017-04-10T11:55:45.335Z,2845
2017-04-10T11:56:55.061Z,2875
2017-04-10T11:58:04.788Z,1085
2017-04-10T11:59:14.548Z,1275
2017-04-10T12:00:23.958Z,1510
2017-04-10T12:01:34.001Z,2610
2017-04-10T12:02:43.410Z,2360
2017-04-10T12:03:53.470Z,2975
2017-04-10T12:05:02.890Z,1025
2017-04-10T12:06:12.307Z,965
2017-04-10T12:07:22.664Z,730
2017-04-10T12:08:31.764Z,665
2017-04-10T12:09:41.805Z,635
2017-04-10T12:10:51.241Z,665
2017-04-10T12:12:00.979Z,750
2017-04-10T12:13:10.082Z,845
2017-04-10T12:14:20.129Z,1080
2017-04-10T12:15:29.541Z,1180
2017-04-10T12:16:38.944Z,1005
2017-04-10T12:17:48.668Z,880
2017-04-10T12:18:57.764Z,825
2017-04-10T12:20:07.806Z,2790
2017-04-10T12:21:17.529Z,1755
2017-04-10T12:22:27.577Z,1240
2017-04-10T12:23:37.935Z,1585
2017-04-10T12:24:47.664Z,1905
2017-04-10T12:25:57.091Z,2655
2017-04-10T12:27:07.135Z,2580
2017-04-10T12:28:17.483Z,1095
2017-04-10T12:29:27.460Z,1020
2017-04-10T12:30:36.865Z,1075
2017-04-10T12:31:46.596Z,865
2017-04-10T12:32:56.006Z,845
2017-04-10T12:34:06.060Z,2710
2017-04-10T12:35:16.107Z,960
2017-04-10T12:36:25.828Z,910
2017-04-10T12:37:35.869Z,790
2017-04-10T12:38:45.284Z,815
2017-04-10T12:39:55.013Z,860
2017-04-10T12:41:04.424Z,880
2017-04-10T12:42:14.148Z,850
2017-04-10T12:43:22.931Z,855
2017-04-10T12:44:32.346Z,1570
2017-04-10T12:45:41.447Z,1085
2017-04-10T12:46:51.176Z,1510
2017-04-10T12:48:01.222Z,2870
2017-04-10T12:49:10.654Z,2855
2017-04-10T12:50:20.398Z,1375
2017-04-10T12:51:30.226Z,890
2017-04-10T12:52:39.696Z,1065
2017-04-10T12:53:49.296Z,1185
2017-04-10T12:54:59.853Z,950
